Márcio Cunha

Scout - Bahia
19 Aug 2027
Donnerstag
Verarbeitung

Persönlichkeit

Anpassungsfähigkeit (7) Ehrgeiz (5) Kontroverse (3) Loyalität (11) Druck (16) Professionalität (17) Fairness (17) Temperament (14)

Profil

Trainerstil Demokratisch
Lizenz Nationale B
Entschlossenheit 7
Menschenführung 13
Motivation 7
Disziplin 5
Arbeitszufriedenheit
72%
Ermüdung
0%
Rolle Scout
Gehalt 34.6K p/W
Vertrag 14.03.2030

Leistung

Verhalten Gut
Trainingseffektivität
40%
Spielerentwicklung
55%
Verletzungsprävention
55%
Taktische Umsetzung
70%

Letzte Ereignisse

Nahm an einer Scouting-Besprechung teil jetzt
Nahm an einer Scouting-Besprechung teil 7T her
Nahm an einer Scouting-Besprechung teil 7T her
Nahm an einer Scouting-Besprechung teil 7T her
Nahm an einer Scouting-Besprechung teil 14T her
Nahm an einer Scouting-Besprechung teil 14T her
Nahm an einer Scouting-Besprechung teil 14T her
Nahm an einer Scouting-Besprechung teil 21T her

Aktuell beobachtet

83
Spieler Verein Status Fähigkeit Vertrauen Beobachtet Zuletzt beobachtet Letzte Stimme
Rodrigues Mirassol Aktiv 129 / 112 51% 1 28.06.2027 -
Giorgian De Arrascaeta Flamengo Aktiv 130 / 133 51% 1 07.06.2027 -
Jofre Torrents Ajax Aktiv 130 / 129 40% 6 30.05.2027 -
Matías Gómez Granada Aktiv 112 / 123 40% 3 30.05.2027 -
Leandro Martins Benfica Aktiv 84 / 110 40% 2 27.05.2027 -
Afonso Assis Moreirense Aktiv 107 / 113 40% 2 26.05.2027 -
Caleb Yirenkyi Coventry City Aktiv 126 / 148 40% 2 20.05.2027 -
Eduardo Felicíssimo Sporting CP Aktiv 129 / 121 40% 3 20.05.2027 -
Tiago Freitas Benfica Aktiv 94 / 109 40% 2 18.05.2027 -
Rayhan Momade Sporting CP Aktiv 89 / 98 40% 1 18.05.2027 -
Daniel Costa Sporting CP Aktiv 111 / 108 40% 2 16.05.2027 -
Cheveyo Tsawa Club Brugge Aktiv 103 / 133 40% 2 16.05.2027 -
Ernie Weaver AFC Wimbledon Aktiv 102 / 121 40% 2 09.05.2027 -
Jan Bürger Gillingham Aktiv 124 / 125 40% 1 09.05.2027 -
Adam Bakoune Ospitaletto Aktiv 113 / 114 40% 1 08.05.2027 -
Zaïd BafdilI Sporting CP Aktiv 74 / 93 40% 1 08.05.2027 -
Martim Cunha Porto Aktiv 100 / 118 40% 1 04.05.2027 -
Gonçalo Oliveira Benfica Aktiv 129 / 126 40% 2 02.05.2027 -
Dylan Lawlor Cardiff City Aktiv 127 / 133 40% 1 29.04.2027 -
João Simões Sporting CP Aktiv 124 / 146 40% 4 20.04.2027 -
José Neto Moreirense Aktiv 111 / 110 40% 1 18.04.2027 -
Keagan Tau Ajax Cape Town Aktiv 80 / 88 40% 2 17.04.2027 -
Toni Tamarit Alverca Aktiv 114 / 138 40% 1 13.04.2027 -
David Ozoh Derby County Aktiv 111 / 117 40% 2 12.04.2027 -
Sascha Britschgi Padova Aktiv 136 / 129 40% 1 12.04.2027 -
James Dornelly Peterborough United Aktiv 101 / 108 40% 1 05.04.2027 -
Salvador Blopá Casa Pia Aktiv 119 / 105 40% 1 03.04.2027 -
Christ Inao Oulaï Fiorentina Aktiv 131 / 146 40% 1 02.04.2027 -
Ibrahim Maza Bayer Leverkusen Aktiv 134 / 157 40% 1 27.03.2027 -
Riley Owen Trento Aktiv 122 / 119 40% 1 23.03.2027 -
Yussif Saidu Zaragoza Aktiv 125 / 139 40% 1 19.03.2027 -
João Teixeira Porto Aktiv 96 / 111 40% 1 19.03.2027 -
Lucas Høgsberg RC Strasbourg Aktiv 116 / 153 40% 1 18.03.2027 -
Alberto Costa Porto Aktiv 131 / 140 40% 2 30.11.2026 -
Dara O'Shea Ipswich Town Aktiv 129 / 142 40% 1 30.11.2026 -
Tamble Monteiro Rio Ave Aktiv 127 / 118 40% 2 29.11.2026 -
Mandla Mahlangu Ajax Cape Town Aktiv 102 / 95 40% 1 29.11.2026 -
Marco Asensio Fenerbahce Aktiv 158 / 150 40% 2 26.11.2026 -
Shea Charles Southampton Aktiv 121 / 130 40% 1 26.11.2026 -
Gonçalo Inácio Sporting CP Aktiv 160 / 148 40% 1 26.11.2026 Mehr Infos nötig
Diego Lainez Tigres Aktiv 119 / 125 40% 1 26.11.2026 -
Lucas Piton Vasco da Gama Aktiv 129 / 122 40% 1 23.11.2026 -
Víctor Gómez Braga Aktiv 121 / 120 40% 2 22.11.2026 -
Jalen Blesa Rio Ave Aktiv 115 / 124 40% 1 20.11.2026 -
Yousef Salech Cardiff City Aktiv 135 / 112 40% 1 20.11.2026 -
Santi García Gil Vicente Aktiv 153 / 133 40% 1 18.11.2026 -
Jesús Ricardo Angulo Toluca Aktiv 146 / 141 40% 1 18.11.2026 -
Mario Dorgeles Braga Aktiv 120 / 122 40% 1 17.11.2026 -
Paulinho Palmeiras Aktiv 131 / 152 40% 2 15.11.2026 Mehr Infos nötig
Iván Fresneda Sporting CP Aktiv 120 / 137 40% 1 15.11.2026 -
Martín Tejón Maritimo Aktiv 114 / 105 40% 2 13.11.2026 -
José Manuel López Palmeiras Aktiv 141 / 133 40% 1 13.11.2026 -
Hwang In-Beom Porto Aktiv 164 / 140 40% 1 09.11.2026 -
Razvan Balasa Crvena Zvezda Aktiv 143 / 156 40% 1 08.11.2026 -
Luís Esteves Atlas Aktiv 134 / 130 40% 3 05.11.2026 -
Heorhii Sudakov Benfica Aktiv 143 / 130 40% 1 04.11.2026 -
Tariq Lamptey Queens Park Rangers Aktiv 114 / 136 40% 1 04.11.2026 -
Nicolás Fernández Mercau Shakhtar Aktiv 143 / 130 40% 1 04.11.2026 -
Zé Leite Leixões Aktiv 122 / 133 40% 1 02.11.2026 -
Fredrik Aursnes Benfica Aktiv 153 / 157 40% 1 27.10.2026 -
Agustín Módica Gimnasia y Esgrima Aktiv 122 / 113 40% 1 19.10.2026 -
Agustín Palavecino Cruz Azul Aktiv 132 / 140 40% 1 17.10.2026 -
Sergi Altimira Sporting CP Aktiv 119 / 151 40% 1 15.10.2026 -
Alan Varela Porto Aktiv 141 / 135 40% 1 15.10.2026 -
Manuel Ospina Cortulua Aktiv 138 / 117 40% 1 13.10.2026 -
Nicolás Cordero Aldosivi Aktiv 111 / 114 40% 1 12.10.2026 -
Santiago Paiva Santos Aktiv 98 / 110 40% 1 12.10.2026 -
John McGinn Aston Villa Aktiv 137 / 146 40% 1 07.10.2026 -
Brais Méndez Columbus Crew Aktiv 144 / 153 40% 1 01.10.2026 -
Andrés Gómez Vasco da Gama Aktiv 134 / 140 40% 1 28.09.2026 -
William Gomes Porto Aktiv 141 / 147 40% 2 27.09.2026 -
João Palhinha Benfica Aktiv 160 / 163 40% 2 27.09.2026 -
Renato Sanches AVS Aktiv 124 / 146 40% 1 22.09.2026 -
Guilherme Arana Fluminense Aktiv 133 / 141 40% 1 22.09.2026 -
Ryan Sessegnon Fulham Aktiv 125 / 138 40% 1 12.09.2026 -
Victor Froholdt Porto Aktiv 146 / 164 40% 2 11.09.2026 -
Oussama Idrissi Pachuca Aktiv 133 / 142 40% 1 09.09.2026 -
João Carvalho Estoril Praia Aktiv 126 / 115 40% 1 07.09.2026 -
Gonçalo Moreira Benfica Aktiv 111 / 132 40% 1 14.08.2026 -
Markus Jensen Nacional Aktiv 90 / 105 40% 1 10.08.2026 -
Manuel Mendonça Moreirense Aktiv 94 / 106 40% 1 10.08.2026 -
Unai Marrero Real Sociedad Aktiv 111 / 116 40% 1 07.08.2026 -
El Hadji Malick Diouf Brentford Aktiv 133 / 145 40% 1 02.08.2026 -